sensor_id;sensor_type;location;lat;lon;timestamp;pressure;altitude;pressure_sealevel;temperature;humidity
17936;BME280;9093;52.062;4.508;2022-08-01T00:02:19;101995.31;;;19.67;81.48
17936;BME280;9093;52.062;4.508;2022-08-01T00:04:59;101993.47;;;19.68;81.24
17936;BME280;9093;52.062;4.508;2022-08-01T00:07:40;101990.78;;;19.68;81.26
17936;BME280;9093;52.062;4.508;2022-08-01T00:10:20;101997.94;;;19.69;81.39
17936;BME280;9093;52.062;4.508;2022-08-01T00:13:01;101996.97;;;19.70;81.41
17936;BME280;9093;52.062;4.508;2022-08-01T00:15:41;101996.97;;;19.70;81.44
17936;BME280;9093;52.062;4.508;2022-08-01T00:18:21;101998.69;;;19.71;81.36
17936;BME280;9093;52.062;4.508;2022-08-01T00:21:03;101995.97;;;19.71;81.32
17936;BME280;9093;52.062;4.508;2022-08-01T00:23:44;101998.44;;;19.74;81.36
17936;BME280;9093;52.062;4.508;2022-08-01T00:26:25;102003.88;;;19.74;81.31
17936;BME280;9093;52.062;4.508;2022-08-01T00:29:06;102004.84;;;19.73;81.59
17936;BME280;9093;52.062;4.508;2022-08-01T00:31:46;102002.28;;;19.72;81.48
17936;BME280;9093;52.062;4.508;2022-08-01T00:34:26;102000.63;;;19.69;81.34
17936;BME280;9093;52.062;4.508;2022-08-01T00:37:07;102000.63;;;19.69;81.43
17936;BME280;9093;52.062;4.508;2022-08-01T00:39:47;102001.63;;;19.68;81.36
17936;BME280;9093;52.062;4.508;2022-08-01T00:42:27;102003.81;;;19.63;81.36
17936;BME280;9093;52.062;4.508;2022-08-01T00:45:08;102004.78;;;19.62;81.46
17936;BME280;9093;52.062;4.508;2022-08-01T00:47:48;101998.63;;;19.60;81.60
17936;BME280;9093;52.062;4.508;2022-08-01T00:50:29;101995.16;;;19.58;81.29
17936;BME280;9093;52.062;4.508;2022-08-01T00:53:09;101999.81;;;19.56;81.62
17936;BME280;9093;52.062;4.508;2022-08-01T00:55:50;102005.13;;;19.57;81.59
17936;BME280;9093;52.062;4.508;2022-08-01T00:58:30;102004.25;;;19.57;81.42
17936;BME280;9093;52.062;4.508;2022-08-01T01:01:12;102004.25;;;19.57;81.51
17936;BME280;9093;52.062;4.508;2022-08-01T01:03:52;102000.69;;;19.56;81.50
17936;BME280;9093;52.062;4.508;2022-08-01T01:09:43;102004.25;;;19.57;81.27
17936;BME280;9093;52.062;4.508;2022-08-01T01:12:42;101999.03;;;19.54;81.52
17936;BME280;9093;52.062;4.508;2022-08-01T01:15:40;101997.34;;;19.53;81.35
17936;BME280;9093;52.062;4.508;2022-08-01T01:18:30;102001.03;;;19.52;81.53
17936;BME280;9093;52.062;4.508;2022-08-01T01:27:02;101987.69;;;19.49;81.36
17936;BME280;9093;52.062;4.508;2022-08-01T01:29:51;101993.88;;;19.51;81.56
17936;BME280;9093;52.062;4.508;2022-08-01T01:32:38;101991.25;;;19.49;81.39
17936;BME280;9093;52.062;4.508;2022-08-01T01:35:23;101995.81;;;19.49;81.57
17936;BME280;9093;52.062;4.508;2022-08-01T01:38:09;101992.66;;;19.42;81.73
17936;BME280;9093;52.062;4.508;2022-08-01T01:40:52;102000.91;;;19.41;81.74
17936;BME280;9093;52.062;4.508;2022-08-01T01:43:35;101992.78;;;19.41;81.58
17936;BME280;9093;52.062;4.508;2022-08-01T01:46:17;102006.31;;;19.41;81.58
17936;BME280;9093;52.062;4.508;2022-08-01T01:48:59;102005.56;;;19.39;81.47
17936;BME280;9093;52.062;4.508;2022-08-01T01:51:41;102007.50;;;19.37;81.59
17936;BME280;9093;52.062;4.508;2022-08-01T01:54:24;102009.25;;;19.38;81.68
17936;BME280;9093;52.062;4.508;2022-08-01T01:57:06;102002.31;;;19.34;81.65
17936;BME280;9093;52.062;4.508;2022-08-01T01:59:49;102014.03;;;19.34;81.49
17936;BME280;9093;52.062;4.508;2022-08-01T02:02:30;102005.03;;;19.34;81.69
17936;BME280;9093;52.062;4.508;2022-08-01T02:05:11;101998.75;;;19.33;81.77
17936;BME280;9093;52.062;4.508;2022-08-01T02:07:53;101997.78;;;19.34;81.64
17936;BME280;9093;52.062;4.508;2022-08-01T02:10:36;102006.78;;;19.35;81.77
17936;BME280;9093;52.062;4.508;2022-08-01T02:13:17;102013.16;;;19.34;81.62
17936;BME280;9093;52.062;4.508;2022-08-01T02:15:58;102012.19;;;19.35;81.74
17936;BME280;9093;52.062;4.508;2022-08-01T02:18:39;102002.09;;;19.37;81.52
17936;BME280;9093;52.062;4.508;2022-08-01T02:21:26;102009.47;;;19.35;81.52
17936;BME280;9093;52.062;4.508;2022-08-01T02:24:27;102014.13;;;19.33;81.52
17936;BME280;9093;52.062;4.508;2022-08-01T02:27:13;102011.19;;;19.36;81.34
17936;BME280;9093;52.062;4.508;2022-08-01T02:30:06;102012.19;;;19.35;81.48
17936;BME280;9093;52.062;4.508;2022-08-01T02:32:53;102007.75;;;19.34;81.72
17936;BME280;9093;52.062;4.508;2022-08-01T02:35:40;102006.88;;;19.33;81.54
17936;BME280;9093;52.062;4.508;2022-08-01T02:38:24;102007.75;;;19.34;81.47
17936;BME280;9093;52.062;4.508;2022-08-01T02:41:09;102015.97;;;19.32;81.56
17936;BME280;9093;52.062;4.508;2022-08-01T02:43:57;102019.66;;;19.31;81.62
17936;BME280;9093;52.062;4.508;2022-08-01T02:46:49;102009.88;;;19.28;81.38
17936;BME280;9093;52.062;4.508;2022-08-01T02:49:36;102020.84;;;19.27;81.72
17936;BME280;9093;52.062;4.508;2022-08-01T02:52:20;102020.00;;;19.26;81.42
17936;BME280;9093;52.062;4.508;2022-08-01T02:55:03;102017.28;;;19.26;81.72
17936;BME280;9093;52.062;4.508;2022-08-01T02:57:45;102012.84;;;19.25;81.48
17936;BME280;9093;52.062;4.508;2022-08-01T03:00:27;102007.84;;;19.19;81.55
17936;BME280;9093;52.062;4.508;2022-08-01T03:03:09;102007.84;;;19.19;81.66
17936;BME280;9093;52.062;4.508;2022-08-01T03:05:50;102014.47;;;19.15;81.66
17936;BME280;9093;52.062;4.508;2022-08-01T03:08:31;102017.19;;;19.15;81.54
17936;BME280;9093;52.062;4.508;2022-08-01T03:11:13;102015.31;;;19.16;81.72
17936;BME280;9093;52.062;4.508;2022-08-01T03:13:55;102029.53;;;19.19;81.52
17936;BME280;9093;52.062;4.508;2022-08-01T03:16:38;102023.44;;;19.16;81.59
17936;BME280;9093;52.062;4.508;2022-08-01T03:19:22;102023.34;;;19.17;81.53
17936;BME280;9093;52.062;4.508;2022-08-01T03:22:06;102022.38;;;19.18;81.53
17936;BME280;9093;52.062;4.508;2022-08-01T03:24:49;102022.38;;;19.18;81.59
17936;BME280;9093;52.062;4.508;2022-08-01T03:27:31;102025.31;;;19.15;81.61
17936;BME280;9093;52.062;4.508;2022-08-01T03:30:13;102023.56;;;19.14;81.68
17936;BME280;9093;52.062;4.508;2022-08-01T03:32:53;102023.69;;;19.13;81.51
17936;BME280;9093;52.062;4.508;2022-08-01T03:35:37;102026.38;;;19.13;81.73
17936;BME280;9093;52.062;4.508;2022-08-01T03:38:22;102023.56;;;19.14;81.59
17936;BME280;9093;52.062;4.508;2022-08-01T03:41:09;102029.84;;;19.15;81.66
17936;BME280;9093;52.062;4.508;2022-08-01T03:43:55;102029.84;;;19.15;81.56
17936;BME280;9093;52.062;4.508;2022-08-01T03:46:46;102025.31;;;19.15;81.87
17936;BME280;9093;52.062;4.508;2022-08-01T03:49:30;102027.88;;;19.17;81.75
17936;BME280;9093;52.062;4.508;2022-08-01T03:52:12;102016.84;;;19.20;81.52
17936;BME280;9093;52.062;4.508;2022-08-01T03:54:55;102022.16;;;19.21;81.61
17936;BME280;9093;52.062;4.508;2022-08-01T03:57:36;102014.03;;;19.21;81.63
17936;BME280;9093;52.062;4.508;2022-08-01T04:00:17;102017.72;;;19.20;81.66
17936;BME280;9093;52.062;4.508;2022-08-01T04:03:01;102017.72;;;19.20;81.56
17936;BME280;9093;52.062;4.508;2022-08-01T04:05:42;102023.22;;;19.19;81.58
17936;BME280;9093;52.062;4.508;2022-08-01T04:08:22;102017.81;;;19.19;81.53
17936;BME280;9093;52.062;4.508;2022-08-01T04:11:03;102022.28;;;19.20;81.68
17936;BME280;9093;52.062;4.508;2022-08-01T04:13:43;102024.22;;;19.18;81.48
17936;BME280;9093;52.062;4.508;2022-08-01T04:16:23;102028.75;;;19.17;81.51
17936;BME280;9093;52.062;4.508;2022-08-01T04:19:05;102035.03;;;19.18;81.54
17936;BME280;9093;52.062;4.508;2022-08-01T04:21:47;102037.66;;;19.19;81.35
17936;BME280;9093;52.062;4.508;2022-08-01T04:24:28;102036.56;;;19.22;81.66
17936;BME280;9093;52.062;4.508;2022-08-01T04:27:13;102039.16;;;19.23;81.54
17936;BME280;9093;52.062;4.508;2022-08-01T04:29:56;102030.91;;;19.25;81.62
17936;BME280;9093;52.062;4.508;2022-08-01T04:32:39;102037.19;;;19.25;81.52
17936;BME280;9093;52.062;4.508;2022-08-01T04:35:20;102038.06;;;19.26;81.63
17936;BME280;9093;52.062;4.508;2022-08-01T04:38:01;102040.69;;;19.27;81.64
17936;BME280;9093;52.062;4.508;2022-08-01T04:40:44;102039.47;;;19.32;81.59
17936;BME280;9093;52.062;4.508;2022-08-01T04:43:25;102046.97;;;19.28;81.49
17936;BME280;9093;52.062;4.508;2022-08-01T04:46:06;102047.41;;;19.35;81.70
17936;BME280;9093;52.062;4.508;2022-08-01T04:48:48;102033.63;;;19.38;81.67
17936;BME280;9093;52.062;4.508;2022-08-01T04:51:29;102043.25;;;19.42;81.47
17936;BME280;9093;52.062;4.508;2022-08-01T04:54:09;102040.44;;;19.43;81.36
17936;BME280;9093;52.062;4.508;2022-08-01T04:56:50;102046.53;;;19.47;81.51
17936;BME280;9093;52.062;4.508;2022-08-01T04:59:33;102048.03;;;19.51;81.35
17936;BME280;9093;52.062;4.508;2022-08-01T05:02:20;102046.97;;;19.53;81.37
17936;BME280;9093;52.062;4.508;2022-08-01T05:05:01;102046.97;;;19.53;81.32
17936;BME280;9093;52.062;4.508;2022-08-01T05:07:41;102050.50;;;19.54;81.22
17936;BME280;9093;52.062;4.508;2022-08-01T05:10:21;102050.41;;;19.55;81.50
17936;BME280;9093;52.062;4.508;2022-08-01T05:13:02;102051.06;;;19.59;81.52
17936;BME280;9093;52.062;4.508;2022-08-01T05:15:42;102048.47;;;19.57;81.61
17936;BME280;9093;52.062;4.508;2022-08-01T05:18:22;102054.75;;;19.58;81.49
17936;BME280;9093;52.062;4.508;2022-08-01T05:21:03;102060.19;;;19.58;81.61
17936;BME280;9093;52.062;4.508;2022-08-01T05:23:43;102045.66;;;19.59;81.34
17936;BME280;9093;52.062;4.508;2022-08-01T05:26:23;102054.41;;;19.62;81.44
17936;BME280;9093;52.062;4.508;2022-08-01T05:29:05;102047.91;;;19.65;81.39
17936;BME280;9093;52.062;4.508;2022-08-01T05:31:45;102048.03;;;19.63;81.51
17936;BME280;9093;52.062;4.508;2022-08-01T05:34:26;102054.06;;;19.67;81.47
17936;BME280;9093;52.062;4.508;2022-08-01T05:37:06;102052.13;;;19.69;81.44
17936;BME280;9093;52.062;4.508;2022-08-01T05:39:47;102053.88;;;19.70;81.41
17936;BME280;9093;52.062;4.508;2022-08-01T05:42:27;102055.34;;;19.74;81.26
17936;BME280;9093;52.062;4.508;2022-08-01T05:45:08;102066.97;;;19.76;81.20
17936;BME280;9093;52.062;4.508;2022-08-01T05:47:48;102071.41;;;19.77;81.28
17936;BME280;9093;52.062;4.508;2022-08-01T05:50:29;102066.00;;;19.77;81.36
17936;BME280;9093;52.062;4.508;2022-08-01T05:53:09;102078.56;;;19.78;81.26
17936;BME280;9093;52.062;4.508;2022-08-01T05:55:49;102084.00;;;19.78;81.41
17936;BME280;9093;52.062;4.508;2022-08-01T05:58:30;102083.13;;;19.78;81.18
17936;BME280;9093;52.062;4.508;2022-08-01T06:01:10;102079.44;;;19.79;81.26
17936;BME280;9093;52.062;4.508;2022-08-01T06:03:51;102082.25;;;19.77;81.30
17936;BME280;9093;52.062;4.508;2022-08-01T06:06:32;102081.38;;;19.77;81.25
17936;BME280;9093;52.062;4.508;2022-08-01T06:09:12;102078.78;;;19.75;81.35
17936;BME280;9093;52.062;4.508;2022-08-01T06:11:53;102086.81;;;19.77;81.20
17936;BME280;9093;52.062;4.508;2022-08-01T06:14:33;102085.94;;;19.76;81.23
17936;BME280;9093;52.062;4.508;2022-08-01T06:17:14;102097.75;;;19.75;81.46
17936;BME280;9093;52.062;4.508;2022-08-01T06:19:54;102100.44;;;19.75;81.34
17936;BME280;9093;52.062;4.508;2022-08-01T06:22:34;102095.03;;;19.75;81.34
17936;BME280;9093;52.062;4.508;2022-08-01T06:25:15;102100.44;;;19.75;81.46
17936;BME280;9093;52.062;4.508;2022-08-01T06:27:55;102103.16;;;19.75;81.48
17936;BME280;9093;52.062;4.508;2022-08-01T06:30:35;102102.19;;;19.76;81.31
17936;BME280;9093;52.062;4.508;2022-08-01T06:33:16;102105.66;;;19.78;81.26
17936;BME280;9093;52.062;4.508;2022-08-01T06:35:56;102103.06;;;19.77;81.19
17936;BME280;9093;52.062;4.508;2022-08-01T06:38:37;102111.28;;;19.75;81.55
17936;BME280;9093;52.062;4.508;2022-08-01T06:41:17;102106.97;;;19.73;81.46
17936;BME280;9093;52.062;4.508;2022-08-01T06:43:57;102118.91;;;19.70;81.45
17936;BME280;9093;52.062;4.508;2022-08-01T06:46:39;102112.50;;;19.71;81.68
17936;BME280;9093;52.062;4.508;2022-08-01T06:49:20;102108.69;;;19.74;81.51
17936;BME280;9093;52.062;4.508;2022-08-01T06:52:00;102117.94;;;19.71;81.40
17936;BME280;9093;52.062;4.508;2022-08-01T06:54:40;102108.06;;;19.70;81.80
17936;BME280;9093;52.062;4.508;2022-08-01T06:57:21;102115.22;;;19.71;81.53
17936;BME280;9093;52.062;4.508;2022-08-01T07:00:06;102121.59;;;19.70;81.67
17936;BME280;9093;52.062;4.508;2022-08-01T07:02:50;102123.34;;;19.71;81.55
17936;BME280;9093;52.062;4.508;2022-08-01T07:05:30;102126.91;;;19.72;81.61
17936;BME280;9093;52.062;4.508;2022-08-01T07:08:11;102127.66;;;19.74;81.64
17936;BME280;9093;52.062;4.508;2022-08-01T07:10:51;102132.78;;;19.78;81.54
17936;BME280;9093;52.062;4.508;2022-08-01T07:13:31;102130.78;;;19.80;81.38
17936;BME280;9093;52.062;4.508;2022-08-01T07:16:13;102134.28;;;19.82;81.42
17936;BME280;9093;52.062;4.508;2022-08-01T07:18:54;102144.13;;;19.83;81.40
17936;BME280;9093;52.062;4.508;2022-08-01T07:21:34;102135.78;;;19.86;81.29
17936;BME280;9093;52.062;4.508;2022-08-01T07:24:15;102146.31;;;19.91;81.27
17936;BME280;9093;52.062;4.508;2022-08-01T07:26:55;102144.47;;;19.91;81.34
17936;BME280;9093;52.062;4.508;2022-08-01T07:29:37;102148.00;;;19.92;81.24
17936;BME280;9093;52.062;4.508;2022-08-01T07:32:17;102149.00;;;19.91;81.00
17936;BME280;9093;52.062;4.508;2022-08-01T07:34:58;102155.06;;;19.94;81.38
17936;BME280;9093;52.062;4.508;2022-08-01T07:37:38;102159.84;;;19.91;81.26
17936;BME280;9093;52.062;4.508;2022-08-01T07:40:19;102163.31;;;19.93;81.23
17936;BME280;9093;52.062;4.508;2022-08-01T07:42:59;102165.03;;;19.94;81.33
17936;BME280;9093;52.062;4.508;2022-08-01T07:45:41;102174.03;;;19.94;81.37
17936;BME280;9093;52.062;4.508;2022-08-01T07:48:21;102184.69;;;19.97;81.34
17936;BME280;9093;52.062;4.508;2022-08-01T07:51:03;102172.84;;;19.98;81.04
17936;BME280;9093;52.062;4.508;2022-08-01T07:53:44;102178.91;;;20.02;81.13
17936;BME280;9093;52.062;4.508;2022-08-01T07:56:24;102176.72;;;20.07;81.07
17936;BME280;9093;52.062;4.508;2022-08-01T07:59:05;102175.66;;;20.10;81.07
17936;BME280;9093;52.062;4.508;2022-08-01T08:01:45;102176.53;;;20.10;80.95
17936;BME280;9093;52.062;4.508;2022-08-01T08:04:27;102181.72;;;20.13;81.24
17936;BME280;9093;52.062;4.508;2022-08-01T08:07:07;102179.75;;;20.15;81.19
17936;BME280;9093;52.062;4.508;2022-08-01T08:09:47;102177.91;;;20.16;80.94
17936;BME280;9093;52.062;4.508;2022-08-01T08:12:28;102173.22;;;20.18;80.92
17936;BME280;9093;52.062;4.508;2022-08-01T08:15:08;102185.59;;;20.22;81.17
17936;BME280;9093;52.062;4.508;2022-08-01T08:17:49;102188.22;;;20.23;80.86
17936;BME280;9093;52.062;4.508;2022-08-01T08:20:29;102185.38;;;20.25;81.09
17936;BME280;9093;52.062;4.508;2022-08-01T08:23:10;102184.38;;;20.26;81.22
17936;BME280;9093;52.062;4.508;2022-08-01T08:26:10;102193.19;;;20.29;80.81
17936;BME280;9093;52.062;4.508;2022-08-01T08:28:51;102190.34;;;20.31;80.97
17936;BME280;9093;52.062;4.508;2022-08-01T08:31:31;102197.50;;;20.32;81.17
17936;BME280;9093;52.062;4.508;2022-08-01T08:34:12;102195.59;;;20.34;81.17
17936;BME280;9093;52.062;4.508;2022-08-01T08:36:53;102196.34;;;20.36;81.15
17936;BME280;9093;52.062;4.508;2022-08-01T08:39:34;102196.09;;;20.39;81.02
17936;BME280;9093;52.062;4.508;2022-08-01T08:42:14;102193.19;;;20.42;80.74
17936;BME280;9093;52.062;4.508;2022-08-01T08:44:55;102195.75;;;20.43;81.04
17936;BME280;9093;52.062;4.508;2022-08-01T08:47:35;102197.41;;;20.46;81.02
17936;BME280;9093;52.062;4.508;2022-08-01T08:50:16;102205.06;;;20.52;81.03
17936;BME280;9093;52.062;4.508;2022-08-01T08:52:59;102200.28;;;20.56;80.79
17936;BME280;9093;52.062;4.508;2022-08-01T08:55:42;102202.66;;;20.60;80.81
17936;BME280;9093;52.062;4.508;2022-08-01T08:58:25;102209.59;;;20.64;80.79
17936;BME280;9093;52.062;4.508;2022-08-01T09:01:06;102205.91;;;20.65;80.89
17936;BME280;9093;52.062;4.508;2022-08-01T09:03:48;102215.03;;;20.64;80.91
17936;BME280;9093;52.062;4.508;2022-08-01T09:06:29;102206.88;;;20.64;81.05
17936;BME280;9093;52.062;4.508;2022-08-01T09:09:10;102207.75;;;20.65;80.70
17936;BME280;9093;52.062;4.508;2022-08-01T09:11:50;102213.94;;;20.67;80.70
17936;BME280;9093;52.062;4.508;2022-08-01T09:14:30;102221.94;;;20.68;80.83
17936;BME280;9093;52.062;4.508;2022-08-01T09:17:11;102224.56;;;20.70;80.58
17936;BME280;9093;52.062;4.508;2022-08-01T09:19:54;102206.53;;;20.69;80.37
17936;BME280;9093;52.062;4.508;2022-08-01T09:22:35;102217.06;;;20.73;80.60
17936;BME280;9093;52.062;4.508;2022-08-01T09:25:15;102215.84;;;20.77;80.24
17936;BME280;9093;52.062;4.508;2022-08-01T09:28:03;102213.88;;;20.79;80.14
17936;BME280;9093;52.062;4.508;2022-08-01T09:30:45;102219.81;;;20.84;80.05
17936;BME280;9093;52.062;4.508;2022-08-01T09:33:39;102227.97;;;20.84;80.25
17936;BME280;9093;52.062;4.508;2022-08-01T09:36:44;102230.22;;;20.91;80.14
17936;BME280;9093;52.062;4.508;2022-08-01T09:39:31;102224.22;;;20.98;79.58
17936;BME280;9093;52.062;4.508;2022-08-01T09:42:25;102226.94;;;20.98;79.85
17936;BME280;9093;52.062;4.508;2022-08-01T09:45:06;102230.94;;;21.05;80.06
17936;BME280;9093;52.062;4.508;2022-08-01T09:47:46;102224.38;;;21.08;79.76
17936;BME280;9093;52.062;4.508;2022-08-01T09:50:38;102232.53;;;21.08;79.72
17936;BME280;9093;52.062;4.508;2022-08-01T09:53:19;102231.28;;;21.12;79.60
17936;BME280;9093;52.062;4.508;2022-08-01T09:56:12;102239.44;;;21.12;79.94
17936;BME280;9093;52.062;4.508;2022-08-01T09:58:58;102234.59;;;21.17;79.61
17936;BME280;9093;52.062;4.508;2022-08-01T10:01:44;102237.16;;;21.18;79.51
17936;BME280;9093;52.062;4.508;2022-08-01T10:04:25;102234.13;;;21.23;79.56
17936;BME280;9093;52.062;4.508;2022-08-01T10:07:07;102227.44;;;21.27;79.48
17936;BME280;9093;52.062;4.508;2022-08-01T10:09:47;102237.72;;;21.35;79.53
17936;BME280;9093;52.062;4.508;2022-08-01T10:12:28;102232.81;;;21.40;79.37
17936;BME280;9093;52.062;4.508;2022-08-01T10:15:09;102234.19;;;21.45;79.23
17936;BME280;9093;52.062;4.508;2022-08-01T10:18:01;102232.22;;;21.47;79.25
17936;BME280;9093;52.062;4.508;2022-08-01T10:20:41;102230.00;;;21.52;78.79
17936;BME280;9093;52.062;4.508;2022-08-01T10:23:22;102227.06;;;21.55;79.19
17936;BME280;9093;52.062;4.508;2022-08-01T10:26:05;102228.53;;;21.59;78.79
17936;BME280;9093;52.062;4.508;2022-08-01T10:28:48;102232.72;;;21.63;78.38
17936;BME280;9093;52.062;4.508;2022-08-01T10:31:28;102235.22;;;21.66;78.47
17936;BME280;9093;52.062;4.508;2022-08-01T10:34:13;102234.97;;;21.70;78.26
17936;BME280;9093;52.062;4.508;2022-08-01T10:36:57;102239.19;;;21.74;78.26
17936;BME280;9093;52.062;4.508;2022-08-01T10:39:39;102240.69;;;21.78;78.14
17936;BME280;9093;52.062;4.508;2022-08-01T10:42:19;102240.44;;;21.81;77.93
17936;BME280;9093;52.062;4.508;2022-08-01T10:45:00;102245.63;;;21.84;77.82
17936;BME280;9093;52.062;4.508;2022-08-01T10:47:53;102239.44;;;21.82;77.61
17936;BME280;9093;52.062;4.508;2022-08-01T10:50:42;102239.09;;;21.86;77.84
17936;BME280;9093;52.062;4.508;2022-08-01T10:53:26;102243.41;;;21.89;77.48
17936;BME280;9093;52.062;4.508;2022-08-01T10:56:06;102242.44;;;21.90;77.43
17936;BME280;9093;52.062;4.508;2022-08-01T10:59:01;102252.53;;;21.88;77.38
17936;BME280;9093;52.062;4.508;2022-08-01T11:01:42;102252.53;;;21.88;77.14
17936;BME280;9093;52.062;4.508;2022-08-01T11:04:32;102245.41;;;21.87;77.26
17936;BME280;9093;52.062;4.508;2022-08-01T11:07:16;102253.19;;;21.91;76.48
17936;BME280;9093;52.062;4.508;2022-08-01T11:10:10;102254.81;;;21.94;76.75
17936;BME280;9093;52.062;4.508;2022-08-01T11:12:55;102256.06;;;22.01;76.69
17936;BME280;9093;52.062;4.508;2022-08-01T11:15:35;102258.56;;;22.04;76.24
17936;BME280;9093;52.062;4.508;2022-08-01T11:18:49;102253.13;;;22.04;76.32
17936;BME280;9093;52.062;4.508;2022-08-01T11:21:58;102255.44;;;22.09;76.02
17936;BME280;9093;52.062;4.508;2022-08-01T11:27:29;102254.09;;;22.14;75.98
17936;BME280;9093;52.062;4.508;2022-08-01T11:32:55;102249.91;;;22.21;74.82
17936;BME280;9093;52.062;4.508;2022-08-01T11:35:36;102242.22;;;22.26;75.07
17936;BME280;9093;52.062;4.508;2022-08-01T11:38:27;102241.97;;;22.29;74.55
17936;BME280;9093;52.062;4.508;2022-08-01T11:41:23;102241.72;;;22.32;74.10
17936;BME280;9093;52.062;4.508;2022-08-01T11:44:14;102248.66;;;22.36;74.18
17936;BME280;9093;52.062;4.508;2022-08-01T11:46:59;102250.88;;;22.42;73.64
17936;BME280;9093;52.062;4.508;2022-08-01T11:49:46;102247.66;;;22.49;73.81
17936;BME280;9093;52.062;4.508;2022-08-01T11:52:31;102241.72;;;22.55;73.89
17936;BME280;9093;52.062;4.508;2022-08-01T11:55:13;102243.44;;;22.56;73.41
17936;BME280;9093;52.062;4.508;2022-08-01T11:58:06;102252.34;;;22.58;72.62
17936;BME280;9093;52.062;4.508;2022-08-01T12:00:52;102254.06;;;22.59;73.08
17936;BME280;9093;52.062;4.508;2022-08-01T12:03:32;102257.28;;;22.64;72.82
17936;BME280;9093;52.062;4.508;2022-08-01T12:06:12;102257.03;;;22.67;72.24
17936;BME280;9093;52.062;4.508;2022-08-01T12:08:53;102257.50;;;22.72;72.68
17936;BME280;9093;52.062;4.508;2022-08-01T12:11:33;102255.56;;;22.74;72.23
17936;BME280;9093;52.062;4.508;2022-08-01T12:14:19;102260.16;;;22.73;71.84
17936;BME280;9093;52.062;4.508;2022-08-01T12:16:59;102277.25;;;22.75;71.66
17936;BME280;9093;52.062;4.508;2022-08-01T12:19:40;102268.69;;;22.80;71.71
17936;BME280;9093;52.062;4.508;2022-08-01T12:22:22;102271.53;;;22.78;71.23
17936;BME280;9093;52.062;4.508;2022-08-01T12:25:08;102270.41;;;22.81;71.17
17936;BME280;9093;52.062;4.508;2022-08-01T12:27:49;102271.88;;;22.85;70.41
17936;BME280;9093;52.062;4.508;2022-08-01T12:30:31;102262.22;;;22.92;70.50
17936;BME280;9093;52.062;4.508;2022-08-01T12:33:17;102261.69;;;22.98;70.35
17936;BME280;9093;52.062;4.508;2022-08-01T12:35:58;102258.34;;;23.06;70.03
17936;BME280;9093;52.062;4.508;2022-08-01T12:38:39;102258.69;;;23.12;69.71
17936;BME280;9093;52.062;4.508;2022-08-01T12:41:20;102259.91;;;23.19;69.84
17936;BME280;9093;52.062;4.508;2022-08-01T12:44:00;102261.69;;;23.30;69.54
17936;BME280;9093;52.062;4.508;2022-08-01T12:46:41;102261.53;;;23.43;69.24
17936;BME280;9093;52.062;4.508;2022-08-01T12:49:22;102256.78;;;23.56;69.20
17936;BME280;9093;52.062;4.508;2022-08-01T12:52:04;102255.19;;;23.74;69.16
17936;BME280;9093;52.062;4.508;2022-08-01T12:55:01;102253.97;;;23.88;69.09
17936;BME280;9093;52.062;4.508;2022-08-01T12:57:45;102253.09;;;24.08;68.18
17936;BME280;9093;52.062;4.508;2022-08-01T13:00:30;102252.91;;;24.21;68.84
17936;BME280;9093;52.062;4.508;2022-08-01T13:03:19;102256.66;;;24.29;68.32
17936;BME280;9093;52.062;4.508;2022-08-01T13:06:00;102258.69;;;24.37;67.78
17936;BME280;9093;52.062;4.508;2022-08-01T13:08:40;102250.38;;;24.38;67.31
17936;BME280;9093;52.062;4.508;2022-08-01T13:11:21;102257.41;;;24.41;67.14
17936;BME280;9093;52.062;4.508;2022-08-01T13:14:01;102254.69;;;24.41;67.27
17936;BME280;9093;52.062;4.508;2022-08-01T13:16:46;102252.97;;;24.40;67.49
17936;BME280;9093;52.062;4.508;2022-08-01T13:19:44;102253.84;;;24.40;67.31
17936;BME280;9093;52.062;4.508;2022-08-01T13:22:37;102250.69;;;24.45;66.98
17936;BME280;9093;52.062;4.508;2022-08-01T13:25:18;102245.81;;;24.49;66.17
17936;BME280;9093;52.062;4.508;2022-08-01T13:28:14;102248.78;;;24.36;66.95
17936;BME280;9093;52.062;4.508;2022-08-01T13:30:56;102242.59;;;24.34;66.36
17936;BME280;9093;52.062;4.508;2022-08-01T13:33:46;102239.69;;;24.26;66.58
17936;BME280;9093;52.062;4.508;2022-08-01T13:36:27;102238.09;;;24.23;66.44
17936;BME280;9093;52.062;4.508;2022-08-01T13:39:08;102235.00;;;24.17;66.49
17936;BME280;9093;52.062;4.508;2022-08-01T13:42:12;102245.28;;;24.03;66.18
17936;BME280;9093;52.062;4.508;2022-08-01T13:44:53;102244.09;;;23.96;65.99
17936;BME280;9093;52.062;4.508;2022-08-01T13:47:33;102234.75;;;23.89;65.88
17936;BME280;9093;52.062;4.508;2022-08-01T13:50:13;102228.97;;;23.83;66.61
17936;BME280;9093;52.062;4.508;2022-08-01T13:52:54;102228.34;;;23.79;66.01
17936;BME280;9093;52.062;4.508;2022-08-01T13:55:34;102227.38;;;23.80;65.71
17936;BME280;9093;52.062;4.508;2022-08-01T13:58:14;102231.09;;;23.79;65.61
17936;BME280;9093;52.062;4.508;2022-08-01T14:00:55;102221.91;;;23.80;65.22
17936;BME280;9093;52.062;4.508;2022-08-01T14:03:36;102222.66;;;23.82;65.46
17936;BME280;9093;52.062;4.508;2022-08-01T14:06:16;102223.19;;;23.76;65.59
17936;BME280;9093;52.062;4.508;2022-08-01T14:08:57;102226.91;;;23.75;65.48
17936;BME280;9093;52.062;4.508;2022-08-01T14:11:37;102229.03;;;23.72;65.06
17936;BME280;9093;52.062;4.508;2022-08-01T14:14:18;102219.28;;;23.69;64.79
17936;BME280;9093;52.062;4.508;2022-08-01T14:16:58;102221.25;;;23.67;65.11
17936;BME280;9093;52.062;4.508;2022-08-01T14:19:39;102216.78;;;23.66;64.80
17936;BME280;9093;52.062;4.508;2022-08-01T14:22:19;102216.66;;;23.68;64.51
17936;BME280;9093;52.062;4.508;2022-08-01T14:24:59;102208.63;;;23.66;64.29
17936;BME280;9093;52.062;4.508;2022-08-01T14:27:40;102217.94;;;23.63;64.03
17936;BME280;9093;52.062;4.508;2022-08-01T14:30:21;102206.03;;;23.64;64.26
17936;BME280;9093;52.062;4.508;2022-08-01T14:33:02;102210.47;;;23.65;64.26
17936;BME280;9093;52.062;4.508;2022-08-01T14:35:42;102209.06;;;23.71;63.77
17936;BME280;9093;52.062;4.508;2022-08-01T14:38:23;102210.41;;;23.77;63.78